Pagina principale
METAR-TAF:

METAR-TAF

Aeroporti :

Passo di Resia, Italia

latitudine: 46-50N, longitudine: 010-30E, altezza: 1800 m

Osservazione

Il bollettino è stato emesso 46 minuti fa, alle 05:55 UTC
Vento 8 kt da nord/nord-est con raffiche fino a 23 kt
Temperature -2°C
Umidità 93%
Pressione 996 hPa
Visibilità: 0500 m
Cielo coperto ad un'altezza di 200 ft
neve, nebbia che ghiaccia

METAR: LIVE 170555Z 02008G23KT 0500 SN FZFG OVC002 M02/M03 Q0996 RMK OVC VIS MIN 0500

Ora: 07:41 (06:41 UTC)


TAF: mancante

Osservazioni e previsioni meteorologiche di più di 4000 aeroporti (messaggi METAR e TAF).

Le stazioni disponibili sono rappresentate dai dischi gialli e rossi sulla carta.

Puntare il mouse per vedere il nome della stazione.

Clicca sopra per visualizzare le osservazioni e previsioni meteorologiche.

Per cambiare la mappa : fare clic sui pulsanti verdi con una croce nera per ingrandire, il pulsante verde con un trattino per diminuire, o sulla freccia verde per le mappe adiacenti.


METAR-TAF: